PAS729 WILL-WICC
Flight info
| Callsign | PAS729 |
|---|---|
| Flight time | 0h 36m |
| Altitude | 23000 |
| Route | WILL/14 CKG1D CKG T3 HLM HLM1E WICC/11 |
| Aircraft | A20N/M-VGDW/C |
Departure
| Time | 2026-04-21 13:43 |
|---|---|
| Airport | Radin Inten II International Airport (WILL) |
Arrival
| Time | 2026-04-21 14:19 |
|---|---|
| Airport | Husein Sastranegara International Airport (WICC) |
| Time | Latitude | Longitude | Altitude | Speed | Heading |
|---|---|---|---|---|---|
| 2026-04-21 13:31 | -5.24327 | 105.17736 | 280 ft | 0 kts | 229° |
| 2026-04-21 13:35 | -5.24322 | 105.17742 | 280 ft | 2 kts | 227° |
| 2026-04-21 13:35 | -5.24311 | 105.17754 | 279 ft | 2 kts | 229° |
| 2026-04-21 13:35 | -5.24301 | 105.17765 | 279 ft | 2 kts | 228° |
| 2026-04-21 13:35 | -5.24291 | 105.17776 | 279 ft | 2 kts | 228° |
| 2026-04-21 13:36 | -5.24284 | 105.17783 | 279 ft | 0 kts | 236° |
| 2026-04-21 13:36 | -5.24283 | 105.17787 | 279 ft | 0 kts | 294° |
| 2026-04-21 13:36 | -5.24289 | 105.17793 | 279 ft | 2 kts | 333° |
| 2026-04-21 13:36 | -5.24297 | 105.17797 | 279 ft | 1 kts | 318° |
| 2026-04-21 13:39 | -5.24290 | 105.17791 | 279 ft | 3 kts | 320° |
| 2026-04-21 13:39 | -5.24263 | 105.17770 | 279 ft | 5 kts | 321° |
| 2026-04-21 13:40 | -5.24226 | 105.17739 | 280 ft | 8 kts | 320° |
| 2026-04-21 13:40 | -5.24171 | 105.17708 | 280 ft | 10 kts | 13° |
| 2026-04-21 13:40 | -5.24107 | 105.17765 | 279 ft | 12 kts | 19° |
| 2026-04-21 13:40 | -5.24027 | 105.17717 | 278 ft | 15 kts | 321° |
| 2026-04-21 13:41 | -5.23934 | 105.17638 | 278 ft | 18 kts | 319° |
| 2026-04-21 13:41 | -5.23837 | 105.17555 | 278 ft | 18 kts | 320° |
| 2026-04-21 13:41 | -5.23768 | 105.17511 | 276 ft | 3 kts | 312° |
| 2026-04-21 13:41 | -5.23780 | 105.17509 | 277 ft | 3 kts | 156° |
| 2026-04-21 13:42 | -5.23794 | 105.17519 | 277 ft | 0 kts | 140° |
| 2026-04-21 13:42 | -5.23863 | 105.17577 | 278 ft | 45 kts | 140° |
| 2026-04-21 13:42 | -5.24296 | 105.17945 | 278 ft | 116 kts | 140° |
| 2026-04-21 13:43 | -5.25081 | 105.18608 | 326 ft | 167 kts | 137° |
| 2026-04-21 13:43 | -5.25985 | 105.19371 | 865 ft | 173 kts | 139° |
| 2026-04-21 13:43 | -5.26934 | 105.20084 | 1592 ft | 173 kts | 142° |
| 2026-04-21 13:43 | -5.27914 | 105.20773 | 2262 ft | 174 kts | 142° |
| 2026-04-21 13:44 | -5.28954 | 105.21506 | 2666 ft | 190 kts | 142° |
| 2026-04-21 13:44 | -5.30060 | 105.22294 | 3112 ft | 203 kts | 142° |
| 2026-04-21 13:44 | -5.31270 | 105.23159 | 3442 ft | 226 kts | 142° |
| 2026-04-21 13:44 | -5.32610 | 105.24120 | 3910 ft | 244 kts | 142° |
| 2026-04-21 13:45 | -5.34026 | 105.25139 | 4381 ft | 262 kts | 142° |
| 2026-04-21 13:45 | -5.35556 | 105.26239 | 4949 ft | 275 kts | 142° |
| 2026-04-21 13:45 | -5.37115 | 105.27358 | 5741 ft | 279 kts | 143° |
| 2026-04-21 13:45 | -5.38698 | 105.28495 | 6564 ft | 281 kts | 142° |
| 2026-04-21 13:46 | -5.40283 | 105.29636 | 7354 ft | 284 kts | 142° |
| 2026-04-21 13:46 | -5.41892 | 105.30792 | 8120 ft | 287 kts | 142° |
| 2026-04-21 13:46 | -5.43518 | 105.31965 | 8877 ft | 291 kts | 143° |
| 2026-04-21 13:46 | -5.45161 | 105.33150 | 9616 ft | 294 kts | 143° |
| 2026-04-21 13:47 | -5.46844 | 105.34360 | 10330 ft | 297 kts | 142° |
| 2026-04-21 13:47 | -5.48565 | 105.35600 | 10757 ft | 312 kts | 142° |
| 2026-04-21 13:47 | -5.50352 | 105.36890 | 11188 ft | 324 kts | 142° |
| 2026-04-21 13:47 | -5.52195 | 105.38216 | 11842 ft | 328 kts | 142° |
| 2026-04-21 13:48 | -5.54062 | 105.39562 | 12521 ft | 331 kts | 142° |
| 2026-04-21 13:48 | -5.55952 | 105.40925 | 13175 ft | 334 kts | 142° |
| 2026-04-21 13:48 | -5.57843 | 105.42290 | 13810 ft | 337 kts | 142° |
| 2026-04-21 13:48 | -5.59736 | 105.43656 | 14420 ft | 340 kts | 142° |
| 2026-04-21 13:49 | -5.61667 | 105.45050 | 15010 ft | 343 kts | 142° |
| 2026-04-21 13:49 | -5.63612 | 105.46455 | 15589 ft | 346 kts | 142° |
| 2026-04-21 13:49 | -5.65581 | 105.47876 | 16159 ft | 349 kts | 142° |
| 2026-04-21 13:49 | -5.67545 | 105.49293 | 16698 ft | 352 kts | 142° |
| 2026-04-21 13:50 | -5.69548 | 105.50736 | 17231 ft | 355 kts | 142° |
| 2026-04-21 13:50 | -5.71577 | 105.52194 | 17762 ft | 358 kts | 142° |
| 2026-04-21 13:50 | -5.73594 | 105.53646 | 18276 ft | 361 kts | 142° |
| 2026-04-21 13:50 | -5.75658 | 105.55131 | 18791 ft | 363 kts | 142° |
| 2026-04-21 13:51 | -5.77704 | 105.56604 | 19289 ft | 366 kts | 142° |
| 2026-04-21 13:51 | -5.79793 | 105.58109 | 19781 ft | 368 kts | 142° |
| 2026-04-21 13:51 | -5.81884 | 105.59613 | 20275 ft | 370 kts | 143° |
| 2026-04-21 13:51 | -5.83971 | 105.61117 | 20752 ft | 373 kts | 143° |
| 2026-04-21 13:52 | -5.86076 | 105.62634 | 21224 ft | 375 kts | 143° |
| 2026-04-21 13:52 | -5.88216 | 105.64175 | 21682 ft | 377 kts | 143° |
| 2026-04-21 13:52 | -5.90359 | 105.65719 | 22128 ft | 379 kts | 143° |
| 2026-04-21 13:52 | -5.92490 | 105.67255 | 22571 ft | 382 kts | 143° |
| 2026-04-21 13:53 | -5.94673 | 105.68828 | 22856 ft | 385 kts | 143° |
| 2026-04-21 13:53 | -5.96832 | 105.70383 | 22888 ft | 384 kts | 143° |
| 2026-04-21 13:53 | -5.99029 | 105.71967 | 22890 ft | 384 kts | 143° |
| 2026-04-21 13:53 | -6.01177 | 105.73516 | 22889 ft | 384 kts | 143° |
| 2026-04-21 13:54 | -6.03349 | 105.75083 | 22890 ft | 384 kts | 143° |
| 2026-04-21 13:54 | -6.05552 | 105.76673 | 22887 ft | 385 kts | 143° |
| 2026-04-21 13:54 | -6.07723 | 105.78240 | 22885 ft | 385 kts | 143° |
| 2026-04-21 13:54 | -6.09882 | 105.79800 | 22886 ft | 385 kts | 143° |
| 2026-04-21 13:55 | -6.12077 | 105.81383 | 22889 ft | 385 kts | 143° |
| 2026-04-21 13:55 | -6.14260 | 105.82958 | 22890 ft | 385 kts | 143° |
| 2026-04-21 13:55 | -6.16396 | 105.84596 | 22883 ft | 384 kts | 135° |
| 2026-04-21 13:55 | -6.17983 | 105.86723 | 22886 ft | 382 kts | 115° |
| 2026-04-21 13:56 | -6.18781 | 105.89233 | 22896 ft | 382 kts | 97° |
| 2026-04-21 13:56 | -6.18879 | 105.91896 | 22910 ft | 378 kts | 90° |
| 2026-04-21 13:56 | -6.18853 | 105.94540 | 22911 ft | 378 kts | 89° |
| 2026-04-21 13:56 | -6.18828 | 105.97175 | 22915 ft | 381 kts | 89° |
| 2026-04-21 13:57 | -6.18812 | 105.99848 | 22921 ft | 381 kts | 90° |
| 2026-04-21 13:57 | -6.18802 | 106.02509 | 22920 ft | 382 kts | 90° |
| 2026-04-21 13:57 | -6.18797 | 106.05180 | 22915 ft | 382 kts | 90° |
| 2026-04-21 13:57 | -6.18795 | 106.07844 | 22908 ft | 382 kts | 90° |
| 2026-04-21 13:58 | -6.18794 | 106.10499 | 22905 ft | 383 kts | 90° |
| 2026-04-21 13:58 | -6.18794 | 106.13187 | 22897 ft | 383 kts | 90° |
| 2026-04-21 13:58 | -6.18794 | 106.15865 | 22891 ft | 383 kts | 90° |
| 2026-04-21 13:58 | -6.18794 | 106.18508 | 22888 ft | 382 kts | 90° |
| 2026-04-21 13:59 | -6.18795 | 106.21184 | 22887 ft | 382 kts | 90° |
| 2026-04-21 13:59 | -6.18795 | 106.23845 | 22881 ft | 382 kts | 90° |
| 2026-04-21 13:59 | -6.18795 | 106.26502 | 22876 ft | 382 kts | 90° |
| 2026-04-21 13:59 | -6.18795 | 106.29151 | 22874 ft | 382 kts | 90° |
| 2026-04-21 14:00 | -6.18795 | 106.31812 | 22875 ft | 382 kts | 90° |
| 2026-04-21 14:00 | -6.18794 | 106.34481 | 22874 ft | 382 kts | 90° |
| 2026-04-21 14:00 | -6.18794 | 106.37170 | 22873 ft | 382 kts | 90° |
| 2026-04-21 14:00 | -6.18793 | 106.39806 | 22874 ft | 382 kts | 90° |
| 2026-04-21 14:01 | -6.18792 | 106.42473 | 22875 ft | 383 kts | 90° |
| 2026-04-21 14:01 | -6.18792 | 106.45163 | 22877 ft | 382 kts | 90° |
| 2026-04-21 14:01 | -6.18791 | 106.47800 | 22875 ft | 382 kts | 90° |
| 2026-04-21 14:01 | -6.18806 | 106.50469 | 22876 ft | 382 kts | 92° |
| 2026-04-21 14:02 | -6.18914 | 106.52261 | 22875 ft | 382 kts | 95° |
| 2026-04-21 14:02 | -6.19438 | 106.55783 | 22483 ft | 384 kts | 102° |
| 2026-04-21 14:02 | -6.20032 | 106.58379 | 21995 ft | 383 kts | 103° |
| 2026-04-21 14:03 | -6.21274 | 106.63552 | 21063 ft | 380 kts | 103° |
| 2026-04-21 14:03 | -6.21886 | 106.66116 | 20601 ft | 378 kts | 103° |
| 2026-04-21 14:03 | -6.22486 | 106.68649 | 20145 ft | 376 kts | 102° |
| 2026-04-21 14:03 | -6.23088 | 106.71196 | 19682 ft | 374 kts | 102° |
| 2026-04-21 14:04 | -6.23683 | 106.73724 | 19223 ft | 371 kts | 102° |
| 2026-04-21 14:04 | -6.24274 | 106.76234 | 18762 ft | 369 kts | 102° |
| 2026-04-21 14:04 | -6.24866 | 106.78752 | 18299 ft | 367 kts | 102° |
| 2026-04-21 14:04 | -6.25444 | 106.81210 | 17845 ft | 365 kts | 102° |
| 2026-04-21 14:05 | -6.26015 | 106.83640 | 17396 ft | 363 kts | 102° |
| 2026-04-21 14:05 | -6.26599 | 106.86092 | 16942 ft | 360 kts | 104° |
| 2026-04-21 14:05 | -6.27642 | 106.88353 | 16458 ft | 361 kts | 127° |
| 2026-04-21 14:05 | -6.29545 | 106.89954 | 16010 ft | 362 kts | 150° |
| 2026-04-21 14:06 | -6.31851 | 106.91020 | 15576 ft | 360 kts | 154° |
| 2026-04-21 14:06 | -6.34124 | 106.92049 | 15134 ft | 358 kts | 153° |
| 2026-04-21 14:06 | -6.36371 | 106.93096 | 14696 ft | 355 kts | 153° |
| 2026-04-21 14:06 | -6.38636 | 106.94172 | 14247 ft | 353 kts | 152° |
| 2026-04-21 14:07 | -6.40840 | 106.95229 | 13810 ft | 350 kts | 152° |
| 2026-04-21 14:07 | -6.43031 | 106.96282 | 13375 ft | 348 kts | 152° |
| 2026-04-21 14:07 | -6.45216 | 106.97334 | 12935 ft | 346 kts | 152° |
| 2026-04-21 14:07 | -6.47378 | 106.98373 | 12515 ft | 343 kts | 152° |
| 2026-04-21 14:08 | -6.49518 | 106.99404 | 12091 ft | 341 kts | 152° |
| 2026-04-21 14:08 | -6.51658 | 107.00435 | 11670 ft | 338 kts | 152° |
| 2026-04-21 14:08 | -6.53771 | 107.01452 | 11261 ft | 336 kts | 152° |
| 2026-04-21 14:08 | -6.55893 | 107.02475 | 10847 ft | 334 kts | 153° |
| 2026-04-21 14:09 | -6.57966 | 107.03474 | 10508 ft | 329 kts | 153° |
| 2026-04-21 14:09 | -6.59979 | 107.04441 | 10272 ft | 311 kts | 153° |
| 2026-04-21 14:09 | -6.61876 | 107.05352 | 10106 ft | 291 kts | 152° |
| 2026-04-21 14:09 | -6.63683 | 107.06223 | 9873 ft | 288 kts | 152° |
| 2026-04-21 14:10 | -6.65504 | 107.07103 | 9511 ft | 287 kts | 152° |
| 2026-04-21 14:10 | -6.67248 | 107.08038 | 9156 ft | 285 kts | 144° |
| 2026-04-21 14:10 | -6.68795 | 107.09272 | 8939 ft | 284 kts | 134° |
| 2026-04-21 14:10 | -6.70165 | 107.10743 | 8961 ft | 288 kts | 130° |
| 2026-04-21 14:11 | -6.71502 | 107.12268 | 8980 ft | 289 kts | 130° |
| 2026-04-21 14:11 | -6.72814 | 107.13769 | 8994 ft | 289 kts | 130° |
| 2026-04-21 14:11 | -6.74146 | 107.15286 | 8999 ft | 289 kts | 130° |
| 2026-04-21 14:11 | -6.75480 | 107.16802 | 8712 ft | 291 kts | 128° |
| 2026-04-21 14:12 | -6.76610 | 107.18503 | 8310 ft | 289 kts | 116° |
| 2026-04-21 14:12 | -6.77370 | 107.20361 | 7932 ft | 286 kts | 108° |
| 2026-04-21 14:12 | -6.78007 | 107.22251 | 7565 ft | 284 kts | 107° |
| 2026-04-21 14:12 | -6.78626 | 107.24125 | 7210 ft | 282 kts | 107° |
| 2026-04-21 14:13 | -6.79242 | 107.25967 | 6872 ft | 280 kts | 108° |
| 2026-04-21 14:13 | -6.79866 | 107.27809 | 6538 ft | 278 kts | 108° |
| 2026-04-21 14:13 | -6.80496 | 107.29653 | 6200 ft | 277 kts | 108° |
| 2026-04-21 14:13 | -6.81123 | 107.31486 | 5869 ft | 275 kts | 108° |
| 2026-04-21 14:14 | -6.81736 | 107.33270 | 5740 ft | 264 kts | 108° |
| 2026-04-21 14:14 | -6.82318 | 107.34964 | 5666 ft | 252 kts | 108° |
| 2026-04-21 14:14 | -6.82883 | 107.36610 | 5453 ft | 247 kts | 108° |
| 2026-04-21 14:14 | -6.83441 | 107.38239 | 5244 ft | 242 kts | 108° |
| 2026-04-21 14:15 | -6.83982 | 107.39820 | 5037 ft | 237 kts | 108° |
| 2026-04-21 14:15 | -6.84510 | 107.41363 | 4682 ft | 234 kts | 108° |
| 2026-04-21 14:15 | -6.85027 | 107.42874 | 4545 ft | 216 kts | 108° |
| 2026-04-21 14:15 | -6.85503 | 107.44265 | 4544 ft | 207 kts | 108° |
| 2026-04-21 14:16 | -6.85956 | 107.45588 | 4618 ft | 192 kts | 108° |
| 2026-04-21 14:16 | -6.86379 | 107.46819 | 4447 ft | 178 kts | 108° |
| 2026-04-21 14:16 | -6.86763 | 107.47942 | 4261 ft | 162 kts | 108° |
| 2026-04-21 14:16 | -6.87118 | 107.48976 | 4064 ft | 150 kts | 107° |
| 2026-04-21 14:17 | -6.87445 | 107.49938 | 3869 ft | 144 kts | 107° |
| 2026-04-21 14:17 | -6.87770 | 107.50890 | 3686 ft | 143 kts | 108° |
| 2026-04-21 14:17 | -6.88104 | 107.51828 | 3465 ft | 143 kts | 109° |
| 2026-04-21 14:17 | -6.88441 | 107.52767 | 3210 ft | 141 kts | 108° |
| 2026-04-21 14:18 | -6.88766 | 107.53708 | 3043 ft | 141 kts | 107° |
| 2026-04-21 14:18 | -6.89077 | 107.54647 | 2879 ft | 141 kts | 107° |
| 2026-04-21 14:18 | -6.89381 | 107.55578 | 2701 ft | 140 kts | 108° |
| 2026-04-21 14:18 | -6.89684 | 107.56505 | 2516 ft | 139 kts | 108° |
| 2026-04-21 14:19 | -6.89973 | 107.57361 | 2466 ft | 99 kts | 109° |
| 2026-04-21 14:19 | -6.90139 | 107.57845 | 2465 ft | 60 kts | 109° |
| 2026-04-21 14:19 | -6.90234 | 107.58124 | 2462 ft | 27 kts | 108° |
| 2026-04-21 14:19 | -6.90284 | 107.58276 | 2457 ft | 13 kts | 111° |
| 2026-04-21 14:20 | -6.90340 | 107.58329 | 2454 ft | 8 kts | 191° |
| 2026-04-21 14:20 | -6.90385 | 107.58297 | 2454 ft | 1 kts | 262° |
| 2026-04-21 14:20 | -6.90384 | 107.58285 | 2455 ft | 0 kts | 274° |
| 2026-04-21 14:20 | -6.90383 | 107.58279 | 2455 ft | 1 kts | 274° |
| 2026-04-21 14:21 | -6.90382 | 107.58257 | 2456 ft | 4 kts | 273° |
| 2026-04-21 14:21 | -6.90374 | 107.58220 | 2457 ft | 6 kts | 292° |
| 2026-04-21 14:21 | -6.90376 | 107.58176 | 2459 ft | 4 kts | 220° |
| 2026-04-21 14:21 | -6.90374 | 107.58150 | 2459 ft | 6 kts | 294° |
| 2026-04-21 14:22 | -6.90345 | 107.58086 | 2459 ft | 12 kts | 298° |
| 2026-04-21 14:22 | -6.90295 | 107.57993 | 2459 ft | 16 kts | 288° |
| 2026-04-21 14:22 | -6.90275 | 107.57890 | 2460 ft | 13 kts | 279° |
| 2026-04-21 14:22 | -6.90266 | 107.57838 | 2460 ft | 4 kts | 279° |
| 2026-04-21 14:23 | -6.90267 | 107.57835 | 2460 ft | 0 kts | 260° |
| 2026-04-21 14:23 | -6.90271 | 107.57833 | 2460 ft | 0 kts | 189° |
| 2026-04-21 14:23 | -6.90283 | 107.57832 | 2459 ft | 0 kts | 188° |